sensor_id;sensor_type;location;lat;lon;timestamp;temperature;humidity
57652;DHT22;43480;53.116;6.734;2023-03-01T00:00:54;0.30;99.90
57652;DHT22;43480;53.116;6.734;2023-03-01T00:03:19;0.30;99.90
57652;DHT22;43480;53.116;6.734;2023-03-01T00:05:45;0.30;99.90
57652;DHT22;43480;53.116;6.734;2023-03-01T00:08:10;0.20;99.90
57652;DHT22;43480;53.116;6.734;2023-03-01T00:10:36;0.20;99.90
57652;DHT22;43480;53.116;6.734;2023-03-01T00:13:02;0.10;99.90
57652;DHT22;43480;53.116;6.734;2023-03-01T00:15:27;0.10;99.90
57652;DHT22;43480;53.116;6.734;2023-03-01T00:17:53;0.10;99.90
57652;DHT22;43480;53.116;6.734;2023-03-01T00:20:18;0.10;99.90
57652;DHT22;43480;53.116;6.734;2023-03-01T00:22:44;0.10;99.90
57652;DHT22;43480;53.116;6.734;2023-03-01T00:25:09;0.10;99.90
57652;DHT22;43480;53.116;6.734;2023-03-01T00:27:35;0.00;99.90
57652;DHT22;43480;53.116;6.734;2023-03-01T00:30:00;0.00;99.90
57652;DHT22;43480;53.116;6.734;2023-03-01T00:32:26;0.00;99.90
57652;DHT22;43480;53.116;6.734;2023-03-01T00:34:51;0.00;99.90
57652;DHT22;43480;53.116;6.734;2023-03-01T00:37:20;0.00;99.90
57652;DHT22;43480;53.116;6.734;2023-03-01T00:39:46;0.00;99.90
57652;DHT22;43480;53.116;6.734;2023-03-01T00:42:12;0.00;99.90
57652;DHT22;43480;53.116;6.734;2023-03-01T00:44:37;-0.10;99.90
57652;DHT22;43480;53.116;6.734;2023-03-01T00:47:02;-0.10;99.90
57652;DHT22;43480;53.116;6.734;2023-03-01T00:49:28;-0.10;99.90
57652;DHT22;43480;53.116;6.734;2023-03-01T00:51:54;-0.20;99.90
57652;DHT22;43480;53.116;6.734;2023-03-01T00:54:19;-0.30;99.90
57652;DHT22;43480;53.116;6.734;2023-03-01T00:56:45;-0.30;99.90
57652;DHT22;43480;53.116;6.734;2023-03-01T00:59:10;-0.40;99.90
57652;DHT22;43480;53.116;6.734;2023-03-01T01:01:36;-0.40;99.90
57652;DHT22;43480;53.116;6.734;2023-03-01T01:04:02;-0.50;99.90
57652;DHT22;43480;53.116;6.734;2023-03-01T01:06:32;-0.60;99.90
57652;DHT22;43480;53.116;6.734;2023-03-01T01:09:00;-0.60;99.90
57652;DHT22;43480;53.116;6.734;2023-03-01T01:11:27;-0.60;99.90
57652;DHT22;43480;53.116;6.734;2023-03-01T01:13:52;-0.60;99.90
57652;DHT22;43480;53.116;6.734;2023-03-01T01:16:19;-0.60;99.90
57652;DHT22;43480;53.116;6.734;2023-03-01T01:18:45;-0.70;99.90
57652;DHT22;43480;53.116;6.734;2023-03-01T01:21:11;-0.70;99.90
57652;DHT22;43480;53.116;6.734;2023-03-01T01:23:38;-0.70;99.90
57652;DHT22;43480;53.116;6.734;2023-03-01T01:26:04;-0.80;99.90
57652;DHT22;43480;53.116;6.734;2023-03-01T01:28:30;-0.80;99.90
57652;DHT22;43480;53.116;6.734;2023-03-01T01:30:55;-0.90;99.90
57652;DHT22;43480;53.116;6.734;2023-03-01T01:33:21;-0.80;99.90
57652;DHT22;43480;53.116;6.734;2023-03-01T01:35:46;-0.90;99.90
57652;DHT22;43480;53.116;6.734;2023-03-01T01:38:12;-0.90;99.90
57652;DHT22;43480;53.116;6.734;2023-03-01T01:40:47;-0.90;99.90
57652;DHT22;43480;53.116;6.734;2023-03-01T01:43:20;-0.90;99.90
57652;DHT22;43480;53.116;6.734;2023-03-01T01:45:46;-0.80;99.90
57652;DHT22;43480;53.116;6.734;2023-03-01T01:48:12;-0.80;99.90
57652;DHT22;43480;53.116;6.734;2023-03-01T01:50:40;-0.80;99.90
57652;DHT22;43480;53.116;6.734;2023-03-01T01:53:10;-0.80;99.90
57652;DHT22;43480;53.116;6.734;2023-03-01T01:55:39;-0.80;99.90
57652;DHT22;43480;53.116;6.734;2023-03-01T01:58:06;-0.90;99.90
57652;DHT22;43480;53.116;6.734;2023-03-01T02:00:33;-0.90;99.90
57652;DHT22;43480;53.116;6.734;2023-03-01T02:03:00;-1.00;99.90
57652;DHT22;43480;53.116;6.734;2023-03-01T02:05:35;-1.00;99.90
57652;DHT22;43480;53.116;6.734;2023-03-01T02:08:02;-1.00;99.90
57652;DHT22;43480;53.116;6.734;2023-03-01T02:10:28;-1.10;99.90
57652;DHT22;43480;53.116;6.734;2023-03-01T02:12:54;-1.10;99.90
57652;DHT22;43480;53.116;6.734;2023-03-01T02:15:21;-1.10;99.90
57652;DHT22;43480;53.116;6.734;2023-03-01T02:17:47;-1.10;99.90
57652;DHT22;43480;53.116;6.734;2023-03-01T02:20:20;-1.10;99.90
57652;DHT22;43480;53.116;6.734;2023-03-01T02:22:46;-1.20;99.90
57652;DHT22;43480;53.116;6.734;2023-03-01T02:30:21;-1.20;99.90
57652;DHT22;43480;53.116;6.734;2023-03-01T02:32:47;-1.30;99.90
57652;DHT22;43480;53.116;6.734;2023-03-01T02:35:13;-1.40;99.90
57652;DHT22;43480;53.116;6.734;2023-03-01T02:37:39;-1.40;99.90
57652;DHT22;43480;53.116;6.734;2023-03-01T02:40:07;-1.40;99.90
57652;DHT22;43480;53.116;6.734;2023-03-01T02:42:38;-1.30;99.90
57652;DHT22;43480;53.116;6.734;2023-03-01T02:45:05;-1.40;99.90
57652;DHT22;43480;53.116;6.734;2023-03-01T02:47:31;-1.40;99.90
57652;DHT22;43480;53.116;6.734;2023-03-01T02:49:56;-1.40;99.90
57652;DHT22;43480;53.116;6.734;2023-03-01T02:57:23;-1.30;99.90
57652;DHT22;43480;53.116;6.734;2023-03-01T02:59:49;-1.40;99.90
57652;DHT22;43480;53.116;6.734;2023-03-01T03:02:28;-1.40;99.90
57652;DHT22;43480;53.116;6.734;2023-03-01T03:05:04;-1.40;99.90
57652;DHT22;43480;53.116;6.734;2023-03-01T03:07:32;-1.50;99.90
57652;DHT22;43480;53.116;6.734;2023-03-01T03:09:58;-1.50;99.90
57652;DHT22;43480;53.116;6.734;2023-03-01T03:12:24;-1.60;99.90
57652;DHT22;43480;53.116;6.734;2023-03-01T03:14:49;-1.70;99.90
57652;DHT22;43480;53.116;6.734;2023-03-01T03:17:15;-1.70;99.90
57652;DHT22;43480;53.116;6.734;2023-03-01T03:19:40;-1.70;99.90
57652;DHT22;43480;53.116;6.734;2023-03-01T03:22:06;-1.80;99.90
57652;DHT22;43480;53.116;6.734;2023-03-01T03:24:34;-1.80;99.90
57652;DHT22;43480;53.116;6.734;2023-03-01T03:27:03;-1.80;99.90
57652;DHT22;43480;53.116;6.734;2023-03-01T03:29:29;-1.90;99.90
57652;DHT22;43480;53.116;6.734;2023-03-01T03:31:54;-1.90;99.90
57652;DHT22;43480;53.116;6.734;2023-03-01T03:34:20;-1.90;99.90
57652;DHT22;43480;53.116;6.734;2023-03-01T03:36:45;-1.80;99.90
57652;DHT22;43480;53.116;6.734;2023-03-01T03:39:11;-1.80;99.90
57652;DHT22;43480;53.116;6.734;2023-03-01T03:41:37;-1.90;99.90
57652;DHT22;43480;53.116;6.734;2023-03-01T03:44:02;-1.90;99.90
57652;DHT22;43480;53.116;6.734;2023-03-01T03:46:28;-1.90;99.90
57652;DHT22;43480;53.116;6.734;2023-03-01T03:48:53;-1.90;99.90
57652;DHT22;43480;53.116;6.734;2023-03-01T03:51:19;-1.90;99.90
57652;DHT22;43480;53.116;6.734;2023-03-01T03:53:44;-1.90;99.90
57652;DHT22;43480;53.116;6.734;2023-03-01T03:56:10;-1.90;99.90
57652;DHT22;43480;53.116;6.734;2023-03-01T03:58:36;-1.90;99.90
57652;DHT22;43480;53.116;6.734;2023-03-01T04:01:01;-1.90;99.90
57652;DHT22;43480;53.116;6.734;2023-03-01T04:03:28;-2.00;99.90
57652;DHT22;43480;53.116;6.734;2023-03-01T04:05:54;-2.00;99.90
57652;DHT22;43480;53.116;6.734;2023-03-01T04:08:20;-2.00;99.90
57652;DHT22;43480;53.116;6.734;2023-03-01T04:10:47;-2.10;99.90
57652;DHT22;43480;53.116;6.734;2023-03-01T04:13:14;-2.10;99.90
57652;DHT22;43480;53.116;6.734;2023-03-01T04:15:39;-2.20;99.90
57652;DHT22;43480;53.116;6.734;2023-03-01T04:18:05;-2.20;99.90
57652;DHT22;43480;53.116;6.734;2023-03-01T04:20:31;-2.30;99.90
57652;DHT22;43480;53.116;6.734;2023-03-01T04:22:59;-2.20;99.90
57652;DHT22;43480;53.116;6.734;2023-03-01T04:25:57;-2.20;99.90
57652;DHT22;43480;53.116;6.734;2023-03-01T04:28:22;-2.20;99.90
57652;DHT22;43480;53.116;6.734;2023-03-01T04:30:50;-2.20;99.90
57652;DHT22;43480;53.116;6.734;2023-03-01T04:33:15;-2.20;99.90
57652;DHT22;43480;53.116;6.734;2023-03-01T04:35:41;-2.30;99.90
57652;DHT22;43480;53.116;6.734;2023-03-01T04:38:07;-2.20;99.90
57652;DHT22;43480;53.116;6.734;2023-03-01T04:40:32;-2.20;99.90
57652;DHT22;43480;53.116;6.734;2023-03-01T04:43:00;-2.20;99.90
57652;DHT22;43480;53.116;6.734;2023-03-01T04:45:25;-2.20;99.90
57652;DHT22;43480;53.116;6.734;2023-03-01T04:47:51;-2.30;99.90
57652;DHT22;43480;53.116;6.734;2023-03-01T04:50:19;-2.20;99.90
57652;DHT22;43480;53.116;6.734;2023-03-01T04:52:49;-2.30;99.90
57652;DHT22;43480;53.116;6.734;2023-03-01T04:55:15;-2.30;99.90
57652;DHT22;43480;53.116;6.734;2023-03-01T04:57:40;-2.40;99.90
57652;DHT22;43480;53.116;6.734;2023-03-01T05:00:07;-2.40;99.90
57652;DHT22;43480;53.116;6.734;2023-03-01T05:02:57;-2.50;99.90
57652;DHT22;43480;53.116;6.734;2023-03-01T05:07:51;-2.50;99.90
57652;DHT22;43480;53.116;6.734;2023-03-01T05:10:17;-2.50;99.90
57652;DHT22;43480;53.116;6.734;2023-03-01T05:12:45;-2.50;99.90
57652;DHT22;43480;53.116;6.734;2023-03-01T05:15:11;-2.50;99.90
57652;DHT22;43480;53.116;6.734;2023-03-01T05:17:37;-2.50;99.90
57652;DHT22;43480;53.116;6.734;2023-03-01T05:20:03;-2.50;99.90
57652;DHT22;43480;53.116;6.734;2023-03-01T05:22:33;-2.60;99.90
57652;DHT22;43480;53.116;6.734;2023-03-01T05:24:58;-2.50;99.90
57652;DHT22;43480;53.116;6.734;2023-03-01T05:27:24;-2.50;99.90
57652;DHT22;43480;53.116;6.734;2023-03-01T05:29:49;-2.60;99.90
57652;DHT22;43480;53.116;6.734;2023-03-01T05:32:15;-2.60;99.90
57652;DHT22;43480;53.116;6.734;2023-03-01T05:34:41;-2.60;99.90
57652;DHT22;43480;53.116;6.734;2023-03-01T05:37:07;-2.70;99.90
57652;DHT22;43480;53.116;6.734;2023-03-01T05:39:33;-2.70;99.90
57652;DHT22;43480;53.116;6.734;2023-03-01T05:41:59;-2.70;99.90
57652;DHT22;43480;53.116;6.734;2023-03-01T05:44:26;-2.70;99.90
57652;DHT22;43480;53.116;6.734;2023-03-01T05:46:52;-2.70;99.90
57652;DHT22;43480;53.116;6.734;2023-03-01T05:49:17;-2.70;99.90
57652;DHT22;43480;53.116;6.734;2023-03-01T05:51:45;-2.60;99.90
57652;DHT22;43480;53.116;6.734;2023-03-01T05:54:12;-2.70;99.90
57652;DHT22;43480;53.116;6.734;2023-03-01T05:56:38;-2.60;99.90
57652;DHT22;43480;53.116;6.734;2023-03-01T05:59:04;-2.60;99.90
57652;DHT22;43480;53.116;6.734;2023-03-01T06:01:33;-2.60;99.90
57652;DHT22;43480;53.116;6.734;2023-03-01T06:03:58;-2.60;99.90
57652;DHT22;43480;53.116;6.734;2023-03-01T06:06:24;-2.60;99.90
57652;DHT22;43480;53.116;6.734;2023-03-01T06:08:50;-2.60;99.90
57652;DHT22;43480;53.116;6.734;2023-03-01T06:11:16;-2.50;99.90
57652;DHT22;43480;53.116;6.734;2023-03-01T06:13:42;-2.50;99.90
57652;DHT22;43480;53.116;6.734;2023-03-01T06:16:07;-2.60;99.90
57652;DHT22;43480;53.116;6.734;2023-03-01T06:18:33;-2.60;99.90
57652;DHT22;43480;53.116;6.734;2023-03-01T06:20:59;-2.50;99.90
57652;DHT22;43480;53.116;6.734;2023-03-01T06:23:24;-2.50;99.90
57652;DHT22;43480;53.116;6.734;2023-03-01T06:25:50;-2.50;99.90
57652;DHT22;43480;53.116;6.734;2023-03-01T06:28:16;-2.40;99.90
57652;DHT22;43480;53.116;6.734;2023-03-01T06:30:41;-2.50;99.90
57652;DHT22;43480;53.116;6.734;2023-03-01T06:33:07;-2.40;99.90
57652;DHT22;43480;53.116;6.734;2023-03-01T06:35:33;-2.40;99.90
57652;DHT22;43480;53.116;6.734;2023-03-01T06:37:59;-2.40;99.90
57652;DHT22;43480;53.116;6.734;2023-03-01T06:40:25;-2.50;99.90
57652;DHT22;43480;53.116;6.734;2023-03-01T06:42:51;-2.40;99.90
57652;DHT22;43480;53.116;6.734;2023-03-01T06:45:20;-2.40;99.90
57652;DHT22;43480;53.116;6.734;2023-03-01T06:47:46;-2.40;99.90
57652;DHT22;43480;53.116;6.734;2023-03-01T06:50:11;-2.40;99.90
57652;DHT22;43480;53.116;6.734;2023-03-01T06:52:37;-2.40;99.90
57652;DHT22;43480;53.116;6.734;2023-03-01T06:55:03;-2.40;99.90
57652;DHT22;43480;53.116;6.734;2023-03-01T06:57:29;-2.40;99.90
57652;DHT22;43480;53.116;6.734;2023-03-01T06:59:54;-2.40;99.90
57652;DHT22;43480;53.116;6.734;2023-03-01T07:02:20;-2.40;99.90
57652;DHT22;43480;53.116;6.734;2023-03-01T07:04:45;-2.30;99.90
57652;DHT22;43480;53.116;6.734;2023-03-01T07:07:11;-2.30;99.90
57652;DHT22;43480;53.116;6.734;2023-03-01T07:09:37;-2.30;99.90
57652;DHT22;43480;53.116;6.734;2023-03-01T07:12:02;-2.30;99.90
57652;DHT22;43480;53.116;6.734;2023-03-01T07:14:28;-2.30;99.90
57652;DHT22;43480;53.116;6.734;2023-03-01T07:16:54;-2.30;99.90
57652;DHT22;43480;53.116;6.734;2023-03-01T07:19:20;-2.20;99.90
57652;DHT22;43480;53.116;6.734;2023-03-01T07:21:46;-2.20;99.90
57652;DHT22;43480;53.116;6.734;2023-03-01T07:24:11;-2.10;99.90
57652;DHT22;43480;53.116;6.734;2023-03-01T07:26:37;-2.10;99.90
57652;DHT22;43480;53.116;6.734;2023-03-01T07:29:03;-2.10;99.90
57652;DHT22;43480;53.116;6.734;2023-03-01T07:31:29;-2.00;99.90
57652;DHT22;43480;53.116;6.734;2023-03-01T07:33:55;-1.90;99.90
57652;DHT22;43480;53.116;6.734;2023-03-01T07:36:21;-1.80;99.90
57652;DHT22;43480;53.116;6.734;2023-03-01T07:38:46;-1.70;99.90
57652;DHT22;43480;53.116;6.734;2023-03-01T07:41:12;-1.60;99.90
57652;DHT22;43480;53.116;6.734;2023-03-01T07:43:37;-1.50;99.90
57652;DHT22;43480;53.116;6.734;2023-03-01T07:46:03;-1.50;99.90
57652;DHT22;43480;53.116;6.734;2023-03-01T07:48:29;-1.40;99.90
57652;DHT22;43480;53.116;6.734;2023-03-01T07:51:02;-1.30;99.90
57652;DHT22;43480;53.116;6.734;2023-03-01T07:53:28;-1.20;99.90
57652;DHT22;43480;53.116;6.734;2023-03-01T07:56:00;-1.10;99.90
57652;DHT22;43480;53.116;6.734;2023-03-01T07:58:26;-0.90;99.90
57652;DHT22;43480;53.116;6.734;2023-03-01T08:00:51;-0.80;99.90
57652;DHT22;43480;53.116;6.734;2023-03-01T08:03:17;-0.70;99.90
57652;DHT22;43480;53.116;6.734;2023-03-01T08:05:42;-0.60;99.90
57652;DHT22;43480;53.116;6.734;2023-03-01T08:08:08;-0.50;99.90
57652;DHT22;43480;53.116;6.734;2023-03-01T08:10:33;-0.40;99.90
57652;DHT22;43480;53.116;6.734;2023-03-01T08:12:59;-0.30;99.90
57652;DHT22;43480;53.116;6.734;2023-03-01T08:15:24;-0.20;99.90
57652;DHT22;43480;53.116;6.734;2023-03-01T08:17:50;-0.20;99.90
57652;DHT22;43480;53.116;6.734;2023-03-01T08:20:15;-0.20;99.90
57652;DHT22;43480;53.116;6.734;2023-03-01T08:22:42;-0.10;99.90
57652;DHT22;43480;53.116;6.734;2023-03-01T08:25:07;-0.10;99.90
57652;DHT22;43480;53.116;6.734;2023-03-01T08:27:33;-0.10;99.90
57652;DHT22;43480;53.116;6.734;2023-03-01T08:29:58;0.00;99.90
57652;DHT22;43480;53.116;6.734;2023-03-01T08:32:24;0.00;99.90
57652;DHT22;43480;53.116;6.734;2023-03-01T08:34:49;0.10;99.90
57652;DHT22;43480;53.116;6.734;2023-03-01T08:37:15;0.10;99.90
57652;DHT22;43480;53.116;6.734;2023-03-01T08:39:40;0.20;99.90
57652;DHT22;43480;53.116;6.734;2023-03-01T08:42:06;0.30;99.90
57652;DHT22;43480;53.116;6.734;2023-03-01T08:44:31;0.30;99.90
57652;DHT22;43480;53.116;6.734;2023-03-01T08:46:57;0.40;99.90
57652;DHT22;43480;53.116;6.734;2023-03-01T08:49:23;0.50;99.90
57652;DHT22;43480;53.116;6.734;2023-03-01T08:51:49;0.50;99.90
57652;DHT22;43480;53.116;6.734;2023-03-01T08:54:18;0.60;99.90
57652;DHT22;43480;53.116;6.734;2023-03-01T08:56:44;0.70;99.90
57652;DHT22;43480;53.116;6.734;2023-03-01T08:59:13;0.70;99.90
57652;DHT22;43480;53.116;6.734;2023-03-01T09:01:39;0.80;99.90
57652;DHT22;43480;53.116;6.734;2023-03-01T09:04:05;0.90;99.90
57652;DHT22;43480;53.116;6.734;2023-03-01T09:06:32;1.00;99.90
57652;DHT22;43480;53.116;6.734;2023-03-01T09:08:58;1.10;99.90
57652;DHT22;43480;53.116;6.734;2023-03-01T09:11:24;1.10;99.90
57652;DHT22;43480;53.116;6.734;2023-03-01T09:13:49;1.20;99.90
57652;DHT22;43480;53.116;6.734;2023-03-01T09:16:16;1.30;99.90
57652;DHT22;43480;53.116;6.734;2023-03-01T09:18:43;1.30;99.90
57652;DHT22;43480;53.116;6.734;2023-03-01T09:21:15;1.40;99.90
57652;DHT22;43480;53.116;6.734;2023-03-01T09:23:42;1.40;99.90
57652;DHT22;43480;53.116;6.734;2023-03-01T09:26:08;1.50;99.90
57652;DHT22;43480;53.116;6.734;2023-03-01T09:28:34;1.60;99.90
57652;DHT22;43480;53.116;6.734;2023-03-01T09:31:00;1.60;99.90
57652;DHT22;43480;53.116;6.734;2023-03-01T09:33:27;1.70;99.90
57652;DHT22;43480;53.116;6.734;2023-03-01T09:35:59;1.80;99.90
57652;DHT22;43480;53.116;6.734;2023-03-01T09:38:25;1.90;99.90
57652;DHT22;43480;53.116;6.734;2023-03-01T09:40:50;1.90;99.90
57652;DHT22;43480;53.116;6.734;2023-03-01T09:46:03;2.00;99.90
57652;DHT22;43480;53.116;6.734;2023-03-01T09:48:30;2.10;99.90
57652;DHT22;43480;53.116;6.734;2023-03-01T09:50:58;2.20;99.90
57652;DHT22;43480;53.116;6.734;2023-03-01T09:53:28;2.30;99.90
57652;DHT22;43480;53.116;6.734;2023-03-01T09:56:00;2.40;99.90
57652;DHT22;43480;53.116;6.734;2023-03-01T09:58:31;2.60;99.90
57652;DHT22;43480;53.116;6.734;2023-03-01T10:03:44;2.80;99.90
57652;DHT22;43480;53.116;6.734;2023-03-01T10:06:20;3.00;99.90
57652;DHT22;43480;53.116;6.734;2023-03-01T10:11:24;3.20;99.90
57652;DHT22;43480;53.116;6.734;2023-03-01T10:16:43;3.50;99.90
57652;DHT22;43480;53.116;6.734;2023-03-01T10:19:05;3.60;99.90
57652;DHT22;43480;53.116;6.734;2023-03-01T10:21:35;3.70;99.90
57652;DHT22;43480;53.116;6.734;2023-03-01T10:24:10;3.90;99.90
57652;DHT22;43480;53.116;6.734;2023-03-01T10:26:46;4.10;99.90
57652;DHT22;43480;53.116;6.734;2023-03-01T10:29:12;4.20;99.90
57652;DHT22;43480;53.116;6.734;2023-03-01T10:34:19;4.40;99.90
57652;DHT22;43480;53.116;6.734;2023-03-01T10:36:47;4.50;99.90
57652;DHT22;43480;53.116;6.734;2023-03-01T10:39:17;4.60;99.90
57652;DHT22;43480;53.116;6.734;2023-03-01T10:41:52;4.80;99.90
57652;DHT22;43480;53.116;6.734;2023-03-01T10:44:38;4.90;99.90
57652;DHT22;43480;53.116;6.734;2023-03-01T10:47:04;5.10;99.90
57652;DHT22;43480;53.116;6.734;2023-03-01T10:49:29;5.20;99.90
57652;DHT22;43480;53.116;6.734;2023-03-01T10:51:55;5.30;99.90
57652;DHT22;43480;53.116;6.734;2023-03-01T10:54:31;5.40;99.90
57652;DHT22;43480;53.116;6.734;2023-03-01T10:56:58;5.50;99.90
57652;DHT22;43480;53.116;6.734;2023-03-01T10:59:31;5.60;99.90
57652;DHT22;43480;53.116;6.734;2023-03-01T11:02:01;5.70;99.90
57652;DHT22;43480;53.116;6.734;2023-03-01T11:04:27;5.90;99.90
57652;DHT22;43480;53.116;6.734;2023-03-01T11:06:59;6.00;99.90
57652;DHT22;43480;53.116;6.734;2023-03-01T11:09:25;6.10;99.90
57652;DHT22;43480;53.116;6.734;2023-03-01T11:11:53;6.20;99.90
57652;DHT22;43480;53.116;6.734;2023-03-01T11:14:26;6.30;99.90
57652;DHT22;43480;53.116;6.734;2023-03-01T11:16:59;6.40;99.90
57652;DHT22;43480;53.116;6.734;2023-03-01T11:19:25;6.50;99.90
57652;DHT22;43480;53.116;6.734;2023-03-01T11:21:53;6.60;99.90
57652;DHT22;43480;53.116;6.734;2023-03-01T11:24:19;6.80;99.90
57652;DHT22;43480;53.116;6.734;2023-03-01T11:26:50;6.80;99.90
57652;DHT22;43480;53.116;6.734;2023-03-01T11:29:38;7.00;99.90
57652;DHT22;43480;53.116;6.734;2023-03-01T11:32:05;7.10;99.90
57652;DHT22;43480;53.116;6.734;2023-03-01T11:34:36;7.20;99.90
57652;DHT22;43480;53.116;6.734;2023-03-01T11:37:05;7.40;99.90
57652;DHT22;43480;53.116;6.734;2023-03-01T11:44:29;7.90;99.90
57652;DHT22;43480;53.116;6.734;2023-03-01T11:52:08;8.40;99.90
57652;DHT22;43480;53.116;6.734;2023-03-01T11:54:50;8.60;99.90
57652;DHT22;43480;53.116;6.734;2023-03-01T11:57:55;8.70;99.90
57652;DHT22;43480;53.116;6.734;2023-03-01T12:03:14;9.20;99.90
57652;DHT22;43480;53.116;6.734;2023-03-01T12:08:11;9.50;99.90
57652;DHT22;43480;53.116;6.734;2023-03-01T12:16:40;9.90;99.90
57652;DHT22;43480;53.116;6.734;2023-03-01T12:19:33;10.00;99.90
57652;DHT22;43480;53.116;6.734;2023-03-01T12:24:56;10.30;99.90
57652;DHT22;43480;53.116;6.734;2023-03-01T12:38:03;10.80;99.90
57652;DHT22;43480;53.116;6.734;2023-03-01T12:45:39;11.10;99.90
57652;DHT22;43480;53.116;6.734;2023-03-01T12:50:54;11.10;99.90
57652;DHT22;43480;53.116;6.734;2023-03-01T12:53:32;11.10;99.90
57652;DHT22;43480;53.116;6.734;2023-03-01T12:56:01;11.10;99.90
57652;DHT22;43480;53.116;6.734;2023-03-01T13:09:17;11.00;99.90
57652;DHT22;43480;53.116;6.734;2023-03-01T13:11:44;11.00;99.90
57652;DHT22;43480;53.116;6.734;2023-03-01T13:16:51;10.80;99.90
57652;DHT22;43480;53.116;6.734;2023-03-01T13:21:43;10.60;99.90
57652;DHT22;43480;53.116;6.734;2023-03-01T13:24:25;10.50;99.90
57652;DHT22;43480;53.116;6.734;2023-03-01T13:29:51;10.20;99.90
57652;DHT22;43480;53.116;6.734;2023-03-01T13:32:29;10.00;99.90
57652;DHT22;43480;53.116;6.734;2023-03-01T13:35:57;9.80;99.90
57652;DHT22;43480;53.116;6.734;2023-03-01T13:37:52;9.60;99.90
57652;DHT22;43480;53.116;6.734;2023-03-01T13:42:47;9.40;99.90
57652;DHT22;43480;53.116;6.734;2023-03-01T13:47:41;9.30;99.90
57652;DHT22;43480;53.116;6.734;2023-03-01T13:50:15;9.20;99.90
57652;DHT22;43480;53.116;6.734;2023-03-01T13:52:44;9.20;99.90
57652;DHT22;43480;53.116;6.734;2023-03-01T13:57:39;9.20;99.90
57652;DHT22;43480;53.116;6.734;2023-03-01T14:00:05;9.10;99.90
57652;DHT22;43480;53.116;6.734;2023-03-01T14:02:31;9.20;99.90
57652;DHT22;43480;53.116;6.734;2023-03-01T14:05:00;9.10;99.90
57652;DHT22;43480;53.116;6.734;2023-03-01T14:07:26;9.00;99.90
57652;DHT22;43480;53.116;6.734;2023-03-01T14:09:55;8.90;99.90
57652;DHT22;43480;53.116;6.734;2023-03-01T14:15:04;9.10;99.90
57652;DHT22;43480;53.116;6.734;2023-03-01T14:17:40;9.30;99.90
57652;DHT22;43480;53.116;6.734;2023-03-01T14:20:23;9.40;99.90
57652;DHT22;43480;53.116;6.734;2023-03-01T14:22:50;9.50;99.90
57652;DHT22;43480;53.116;6.734;2023-03-01T14:27:42;9.50;99.90
57652;DHT22;43480;53.116;6.734;2023-03-01T14:30:15;9.50;99.90
57652;DHT22;43480;53.116;6.734;2023-03-01T14:32:48;9.50;99.90
57652;DHT22;43480;53.116;6.734;2023-03-01T14:35:21;9.50;99.90
57652;DHT22;43480;53.116;6.734;2023-03-01T14:37:47;9.60;99.90
57652;DHT22;43480;53.116;6.734;2023-03-01T14:40:22;9.90;99.90
57652;DHT22;43480;53.116;6.734;2023-03-01T14:42:48;10.20;99.90
57652;DHT22;43480;53.116;6.734;2023-03-01T14:45:13;10.40;99.90
57652;DHT22;43480;53.116;6.734;2023-03-01T14:47:39;10.50;99.90
57652;DHT22;43480;53.116;6.734;2023-03-01T14:50:09;10.90;99.90
57652;DHT22;43480;53.116;6.734;2023-03-01T14:52:40;11.10;99.90
57652;DHT22;43480;53.116;6.734;2023-03-01T14:55:13;11.50;99.90
57652;DHT22;43480;53.116;6.734;2023-03-01T14:57:42;11.90;99.90
57652;DHT22;43480;53.116;6.734;2023-03-01T15:00:10;12.30;99.90
57652;DHT22;43480;53.116;6.734;2023-03-01T15:02:41;12.70;99.90
57652;DHT22;43480;53.116;6.734;2023-03-01T15:05:08;12.90;94.80
57652;DHT22;43480;53.116;6.734;2023-03-01T15:07:35;13.00;92.60
57652;DHT22;43480;53.116;6.734;2023-03-01T15:10:03;13.30;92.20
57652;DHT22;43480;53.116;6.734;2023-03-01T15:14:55;13.80;90.70
57652;DHT22;43480;53.116;6.734;2023-03-01T15:17:37;14.00;83.70
57652;DHT22;43480;53.116;6.734;2023-03-01T15:20:04;14.20;84.60
57652;DHT22;43480;53.116;6.734;2023-03-01T15:22:31;14.30;81.70
57652;DHT22;43480;53.116;6.734;2023-03-01T15:24:56;14.30;82.00
57652;DHT22;43480;53.116;6.734;2023-03-01T15:27:23;14.40;83.90
57652;DHT22;43480;53.116;6.734;2023-03-01T15:29:50;14.30;85.40
57652;DHT22;43480;53.116;6.734;2023-03-01T15:32:30;14.10;80.20
57652;DHT22;43480;53.116;6.734;2023-03-01T15:34:57;13.80;79.30
57652;DHT22;43480;53.116;6.734;2023-03-01T15:37:37;13.50;84.00
57652;DHT22;43480;53.116;6.734;2023-03-01T15:42:42;12.70;88.80
57652;DHT22;43480;53.116;6.734;2023-03-01T15:47:41;12.00;97.40
57652;DHT22;43480;53.116;6.734;2023-03-01T15:50:23;11.70;99.90
57652;DHT22;43480;53.116;6.734;2023-03-01T15:52:49;11.40;99.90
57652;DHT22;43480;53.116;6.734;2023-03-01T15:57:44;11.00;99.90
57652;DHT22;43480;53.116;6.734;2023-03-01T16:00:10;10.90;99.90
57652;DHT22;43480;53.116;6.734;2023-03-01T16:02:39;10.70;99.90
57652;DHT22;43480;53.116;6.734;2023-03-01T16:05:05;10.50;99.90
57652;DHT22;43480;53.116;6.734;2023-03-01T16:07:30;10.20;99.90
57652;DHT22;43480;53.116;6.734;2023-03-01T16:09:56;10.10;99.90
57652;DHT22;43480;53.116;6.734;2023-03-01T16:12:22;10.00;99.90
57652;DHT22;43480;53.116;6.734;2023-03-01T16:14:49;9.80;99.90
57652;DHT22;43480;53.116;6.734;2023-03-01T16:17:15;9.70;99.90
57652;DHT22;43480;53.116;6.734;2023-03-01T16:19:41;9.70;99.90
57652;DHT22;43480;53.116;6.734;2023-03-01T16:22:06;9.50;99.90
57652;DHT22;43480;53.116;6.734;2023-03-01T16:24:32;9.40;99.90
57652;DHT22;43480;53.116;6.734;2023-03-01T16:26:57;9.40;99.90
57652;DHT22;43480;53.116;6.734;2023-03-01T16:29:23;9.40;99.90
57652;DHT22;43480;53.116;6.734;2023-03-01T16:31:48;9.40;99.90
57652;DHT22;43480;53.116;6.734;2023-03-01T16:34:14;9.30;99.90
57652;DHT22;43480;53.116;6.734;2023-03-01T16:36:40;9.10;99.90
57652;DHT22;43480;53.116;6.734;2023-03-01T16:39:08;9.00;99.90
57652;DHT22;43480;53.116;6.734;2023-03-01T16:41:34;8.90;99.90
57652;DHT22;43480;53.116;6.734;2023-03-01T16:44:00;8.60;99.90
57652;DHT22;43480;53.116;6.734;2023-03-01T16:46:27;8.40;99.90
57652;DHT22;43480;53.116;6.734;2023-03-01T16:48:53;8.00;99.90
57652;DHT22;43480;53.116;6.734;2023-03-01T16:51:19;7.80;99.90
57652;DHT22;43480;53.116;6.734;2023-03-01T16:53:45;7.50;99.90
57652;DHT22;43480;53.116;6.734;2023-03-01T16:56:11;7.40;99.90
57652;DHT22;43480;53.116;6.734;2023-03-01T16:58:37;7.20;99.90
57652;DHT22;43480;53.116;6.734;2023-03-01T17:01:07;7.00;99.90
57652;DHT22;43480;53.116;6.734;2023-03-01T17:03:33;6.80;99.90
57652;DHT22;43480;53.116;6.734;2023-03-01T17:06:05;6.70;99.90
57652;DHT22;43480;53.116;6.734;2023-03-01T17:08:31;6.50;99.90
57652;DHT22;43480;53.116;6.734;2023-03-01T17:11:07;6.40;99.90
57652;DHT22;43480;53.116;6.734;2023-03-01T17:13:33;6.20;99.90
57652;DHT22;43480;53.116;6.734;2023-03-01T17:16:00;6.10;99.90
57652;DHT22;43480;53.116;6.734;2023-03-01T17:18:27;5.90;99.90
57652;DHT22;43480;53.116;6.734;2023-03-01T17:20:52;5.80;99.90
57652;DHT22;43480;53.116;6.734;2023-03-01T17:23:18;5.70;99.90
57652;DHT22;43480;53.116;6.734;2023-03-01T17:25:43;5.60;99.90
57652;DHT22;43480;53.116;6.734;2023-03-01T17:28:10;5.50;99.90
57652;DHT22;43480;53.116;6.734;2023-03-01T17:30:36;5.40;99.90